PWSweather.com
Personal Weather Stations
Station Observations
ABQWX
Albuquerque, NM 87110

Albuquerque, NM 87110

Lat: 35.1305, Lon: -106.58571

Elevation: 5210

Station Type: LaCrosse

http://www.albuquerqueweather.info/

High Low Average
Temperature 74.8°F23.8°C 46.8°F8.2°C 57.7°F14.3°C
Dew Point 50.9°F10.5°C 38.5°F3.6°C 44.5°F6.9°C
Winds 6.4 mph 10.3 kmh Calm Calm 2.0 mph ESE3.2 kmh ESE
Wind Gusts 13.2 mph21.2 kmh -- 4.0 mph6.4 kmh
Humidity 77% 37% 63%
Pressure 30.14 in1020.7 mb 30.06 in1017.9 mb -
Precipitation 0.09 in2.3 mm - -
Hour Temp Dew Point Humidity Winds Wind Gusts Pressure Precip Precip Rate Daily Precip Total
12:00 AM 52.5°F11.4°C 40.3°F4.6°C 63% 0.3 mph NE0.5 kmh NE 0.7 mph1.1 kmh 30.10 in1019.3 mb 0.00 in0.0 mm 0.00 in/hr0.0 mm/hr 0.00 in0.0 mm
01:00 AM 51.1°F10.6°C 39.7°F4.3°C 65% 0.3 mph ESE0.5 kmh ESE 0.7 mph1.1 kmh 30.11 in1019.6 mb 0.00 in0.0 mm 0.00 in/hr0.0 mm/hr 0.00 in0.0 mm
02:00 AM 49.6°F9.8°C 38.7°F3.7°C 66% 0.1 mph ESE0.2 kmh ESE 0.2 mph0.3 kmh 30.10 in1019.3 mb 0.00 in0.0 mm 0.00 in/hr0.0 mm/hr 0.00 in0.0 mm
03:00 AM 49.5°F9.7°C 39.7°F4.3°C 69% Calm Calm -- 30.12 in1020.0 mb 0.00 in0.0 mm 0.00 in/hr0.0 mm/hr 0.00 in0.0 mm
04:00 AM 49.8°F9.9°C 39.7°F4.3°C 68% Calm Calm -- 30.11 in1019.6 mb 0.00 in0.0 mm 0.00 in/hr0.0 mm/hr 0.00 in0.0 mm
05:00 AM 48.7°F9.3°C 39.0°F3.9°C 69% Calm Calm -- 30.12 in1020.0 mb 0.00 in0.0 mm 0.00 in/hr0.0 mm/hr 0.00 in0.0 mm
06:00 AM 47.5°F8.6°C 38.5°F3.6°C 71% 0.7 mph E1.1 kmh E 1.6 mph2.6 kmh 30.13 in1020.3 mb 0.00 in0.0 mm 0.00 in/hr0.0 mm/hr 0.00 in0.0 mm
07:00 AM 46.8°F8.2°C 38.6°F3.7°C 73% 0.1 mph ENE0.2 kmh ENE 0.4 mph0.6 kmh 30.14 in1020.7 mb 0.00 in0.0 mm 0.00 in/hr0.0 mm/hr 0.00 in0.0 mm
08:00 AM 47.1°F8.4°C 39.3°F4.1°C 74% 0.1 mph NNE0.2 kmh NNE 0.2 mph0.3 kmh 30.14 in1020.7 mb 0.00 in0.0 mm 0.00 in/hr0.0 mm/hr 0.00 in0.0 mm
09:00 AM 52.2°F11.2°C 41.9°F5.5°C 68% 4.2 mph NNW6.8 kmh NNW 5.8 mph9.3 kmh 30.14 in1020.7 mb 0.00 in0.0 mm 0.00 in/hr0.0 mm/hr 0.00 in0.0 mm
10:00 AM 55.9°F13.3°C 42.7°F5.9°C 61% 4.2 mph N6.8 kmh N 6.3 mph10.1 kmh 30.13 in1020.3 mb 0.00 in0.0 mm 0.00 in/hr0.0 mm/hr 0.00 in0.0 mm
11:00 AM 64.2°F17.9°C 46.2°F7.9°C 52% 3.2 mph WSW5.1 kmh WSW 6.7 mph10.8 kmh 30.13 in1020.3 mb 0.00 in0.0 mm 0.00 in/hr0.0 mm/hr 0.00 in0.0 mm
12:00 PM 71.2°F21.8°C 45.7°F7.6°C 40% 3.5 mph SW5.6 kmh SW 5.4 mph8.7 kmh 30.13 in1020.3 mb 0.00 in0.0 mm 0.00 in/hr0.0 mm/hr 0.00 in0.0 mm
01:00 PM 71.8°F22.1°C 46.2°F7.9°C 40% 2.0 mph SSE3.2 kmh SSE 6.3 mph10.1 kmh 30.11 in1019.6 mb 0.00 in0.0 mm 0.00 in/hr0.0 mm/hr 0.00 in0.0 mm
02:00 PM 72.7°F22.6°C 46.3°F7.9°C 39% 3.0 mph S4.8 kmh S 4.7 mph7.6 kmh 30.07 in1018.3 mb 0.00 in0.0 mm 0.00 in/hr0.0 mm/hr 0.00 in0.0 mm
03:00 PM 74.8°F23.8°C 46.8°F8.2°C 37% 6.4 mph E10.3 kmh E 10.7 mph17.2 kmh 30.06 in1017.9 mb 0.00 in0.0 mm 0.00 in/hr0.0 mm/hr 0.00 in0.0 mm
04:00 PM 62.2°F16.8°C 49.1°F9.5°C 62% 6.0 mph ENE9.7 kmh ENE 9.2 mph14.8 kmh 30.08 in1018.6 mb 0.05 in1.3 mm 0.00 in/hr0.0 mm/hr 0.05 in1.3 mm
05:00 PM 59.5°F15.3°C 48.6°F9.2°C 67% 1.5 mph SSW2.4 kmh SSW 3.1 mph5.0 kmh 30.08 in1018.6 mb 0.00 in0.0 mm 0.00 in/hr0.0 mm/hr 0.05 in1.3 mm
06:00 PM 59.4°F15.2°C 50.0°F10.0°C 71% 1.8 mph S2.9 kmh S 3.8 mph6.1 kmh 30.08 in1018.6 mb 0.04 in1.0 mm 0.00 in/hr0.0 mm/hr 0.09 in2.3 mm
07:00 PM 59.0°F15.0°C 50.0°F10.0°C 72% 0.4 mph SE0.6 kmh SE 0.7 mph1.1 kmh 30.08 in1018.6 mb 0.00 in0.0 mm 0.00 in/hr0.0 mm/hr 0.09 in2.3 mm
08:00 PM 58.1°F14.5°C 50.9°F10.5°C 77% 1.2 mph SE1.9 kmh SE 2.5 mph4.0 kmh 30.10 in1019.3 mb 0.00 in0.0 mm 0.00 in/hr0.0 mm/hr 0.09 in2.3 mm
09:00 PM 58.6°F14.8°C 47.3°F8.5°C 66% 6.3 mph SE10.1 kmh SE 13.2 mph21.2 kmh 30.11 in1019.6 mb 0.00 in0.0 mm 0.00 in/hr0.0 mm/hr 0.09 in2.3 mm
10:00 PM 59.0°F15.0°C 46.0°F7.8°C 62% 5.2 mph E8.4 kmh E 8.5 mph13.7 kmh 30.11 in1019.6 mb 0.00 in0.0 mm 0.00 in/hr0.0 mm/hr 0.09 in2.3 mm
11:00 PM 57.9°F14.4°C 48.2°F9.0°C 70% 0.2 mph 0.3 kmh -- 30.12 in1020.0 mb 0.00 in0.0 mm 0.00 in/hr0.0 mm/hr 0.09 in2.3 mm